createdAt,value
2022-09-15T00:01:07.026Z,73.19
2022-09-15T00:03:34.435Z,73.20
2022-09-15T00:06:02.180Z,73.54
2022-09-15T00:08:28.957Z,73.46
2022-09-15T00:11:06.715Z,73.35
2022-09-15T00:13:34.769Z,73.21
2022-09-15T00:16:01.890Z,73.39
2022-09-15T00:18:28.666Z,73.26
2022-09-15T00:20:55.352Z,73.36
2022-09-15T00:23:22.017Z,73.45
2022-09-15T00:25:51.622Z,73.42
2022-09-15T00:28:19.865Z,73.21
2022-09-15T00:30:53.171Z,73.30
2022-09-15T00:33:21.460Z,73.54
2022-09-15T00:35:49.963Z,73.35
2022-09-15T00:38:18.530Z,73.48
2022-09-15T00:40:50.799Z,73.69
2022-09-15T00:43:19.906Z,73.49
2022-09-15T00:45:48.469Z,73.59
2022-09-15T00:48:22.285Z,73.73
2022-09-15T00:50:55.753Z,73.48
2022-09-15T00:53:25.383Z,74.05
2022-09-15T00:55:52.361Z,73.95
2022-09-15T00:58:25.680Z,73.98
2022-09-15T01:01:01.269Z,73.88
2022-09-15T01:04:27.854Z,74.00
2022-09-15T01:07:54.331Z,74.00
2022-09-15T01:10:44.057Z,74.06
2022-09-15T01:14:10.608Z,74.42
2022-09-15T01:17:18.621Z,74.59
2022-09-15T01:20:37.532Z,74.68
2022-09-15T01:24:02.218Z,74.66
2022-09-15T01:27:37.792Z,74.89
2022-09-15T01:31:09.771Z,75.07
2022-09-15T01:34:00.410Z,74.78
2022-09-15T01:37:05.028Z,75.08
2022-09-15T01:39:38.354Z,75.03
2022-09-15T01:42:07.895Z,75.10
2022-09-15T01:44:42.896Z,74.96
2022-09-15T01:47:12.201Z,74.80
2022-09-15T01:49:47.057Z,75.14
2022-09-15T01:52:17.741Z,75.06
2022-09-15T01:54:51.787Z,74.93
2022-09-15T01:57:22.346Z,74.97
2022-09-15T01:59:52.570Z,74.63
2022-09-15T02:02:30.980Z,74.70
2022-09-15T02:05:09.513Z,74.91
2022-09-15T02:07:47.975Z,74.80
2022-09-15T02:10:24.833Z,74.77
2022-09-15T02:13:17.243Z,74.99
2022-09-15T02:15:52.475Z,74.95
2022-09-15T02:18:30.727Z,75.14
2022-09-15T02:21:09.487Z,75.31
2022-09-15T02:23:43.837Z,75.10
2022-09-15T02:26:17.971Z,75.10
2022-09-15T02:28:48.260Z,75.40
2022-09-15T02:31:17.954Z,75.31
2022-09-15T02:33:54.337Z,75.70
2022-09-15T02:36:21.565Z,75.82
2022-09-15T02:38:54.648Z,75.80
2022-09-15T02:41:21.654Z,75.50
2022-09-15T02:43:49.365Z,75.95
2022-09-15T02:46:18.771Z,76.07
2022-09-15T02:48:45.629Z,76.17
2022-09-15T02:51:12.418Z,75.95
2022-09-15T02:53:39.104Z,75.95
2022-09-15T02:56:06.763Z,75.98
2022-09-15T02:58:34.827Z,76.24
2022-09-15T03:01:04.671Z,76.28
2022-09-15T03:03:32.566Z,76.45
2022-09-15T03:06:17.234Z,76.59
2022-09-15T03:08:57.003Z,76.53
2022-09-15T03:11:25.273Z,76.86
2022-09-15T03:13:57.424Z,76.77
2022-09-15T03:16:25.674Z,77.22
2022-09-15T03:18:54.852Z,77.12
2022-09-15T03:21:22.022Z,77.17
2022-09-15T03:23:48.834Z,77.30
2022-09-15T03:26:17.547Z,77.53
2022-09-15T03:28:44.592Z,77.93
2022-09-15T03:31:11.762Z,77.90
2022-09-15T03:33:41.093Z,77.94
2022-09-15T03:36:11.437Z,77.96
2022-09-15T03:38:38.121Z,78.22
2022-09-15T03:41:11.448Z,78.25
2022-09-15T03:43:39.584Z,78.10
2022-09-15T03:46:08.131Z,78.61
2022-09-15T03:48:39.978Z,78.44
2022-09-15T03:51:09.249Z,78.79
2022-09-15T03:53:37.641Z,78.56
2022-09-15T03:56:12.198Z,78.66
2022-09-15T03:58:39.009Z,78.79
2022-09-15T04:01:05.711Z,78.92
2022-09-15T04:03:33.252Z,78.97
2022-09-15T04:06:00.030Z,79.24
2022-09-15T04:08:26.708Z,79.24
2022-09-15T04:10:54.957Z,79.11
2022-09-15T04:13:26.695Z,79.64
2022-09-15T04:16:08.368Z,79.66
2022-09-15T04:18:35.490Z,79.78
2022-09-15T04:21:05.971Z,79.67
2022-09-15T04:23:33.811Z,79.73
2022-09-15T04:26:06.723Z,80.08
2022-09-15T04:28:36.138Z,80.20
2022-09-15T04:31:08.701Z,80.36
2022-09-15T04:33:38.016Z,80.17
2022-09-15T04:36:08.434Z,80.47
2022-09-15T04:38:35.932Z,80.25
2022-09-15T04:41:04.307Z,80.61
2022-09-15T04:43:31.259Z,80.32
2022-09-15T04:45:58.225Z,80.68
2022-09-15T04:48:25.916Z,80.56
2022-09-15T04:50:53.381Z,80.94
2022-09-15T04:53:20.449Z,81.04
2022-09-15T04:55:47.252Z,80.81
2022-09-15T04:58:13.979Z,80.76
2022-09-15T05:00:43.632Z,80.84
2022-09-15T05:03:11.747Z,81.03
2022-09-15T05:05:38.926Z,81.29
2022-09-15T05:08:08.275Z,81.25
2022-09-15T05:10:35.295Z,81.45
2022-09-15T05:13:01.935Z,81.64
2022-09-15T05:15:28.672Z,81.28
2022-09-15T05:17:55.455Z,81.85
2022-09-15T05:20:22.658Z,81.79
2022-09-15T05:22:49.332Z,81.53
2022-09-15T05:25:16.098Z,81.56
2022-09-15T05:27:42.812Z,82.01
2022-09-15T05:30:35.932Z,81.77
2022-09-15T05:37:49.397Z,81.93
2022-09-15T05:40:58.449Z,82.04
2022-09-15T05:48:17.778Z,81.73
2022-09-15T05:51:44.250Z,81.96
2022-09-15T05:54:10.889Z,81.78
2022-09-15T05:57:37.416Z,81.66
2022-09-15T06:01:04.043Z,81.60
2022-09-15T06:04:30.573Z,81.47
2022-09-15T06:07:57.149Z,81.59
2022-09-15T06:11:23.643Z,81.66
2022-09-15T06:18:41.648Z,81.29
2022-09-15T06:22:14.208Z,81.21
2022-09-15T06:25:40.864Z,80.70
2022-09-15T06:29:03.592Z,80.85
2022-09-15T06:36:22.846Z,80.61
2022-09-15T12:18:40.952Z,53.23
2022-09-15T12:21:32.153Z,53.32
2022-09-15T12:24:03.491Z,53.19
2022-09-15T12:26:33.302Z,53.19
2022-09-15T12:29:02.676Z,52.93
2022-09-15T12:31:38.012Z,53.09
2022-09-15T12:34:30.434Z,52.80
2022-09-15T12:37:15.926Z,52.54
2022-09-15T12:39:48.782Z,52.43
2022-09-15T12:42:24.295Z,51.97
2022-09-15T12:45:21.084Z,51.14
2022-09-15T12:48:29.467Z,50.45
2022-09-15T12:51:02.762Z,49.87
2022-09-15T12:53:32.503Z,49.52
2022-09-15T12:56:10.484Z,49.31
2022-09-15T12:58:47.626Z,49.57
2022-09-15T13:01:23.814Z,49.33
2022-09-15T13:03:51.041Z,49.39
2022-09-15T13:06:27.262Z,49.26
2022-09-15T13:09:01.213Z,48.79
2022-09-15T13:11:34.843Z,48.31
2022-09-15T13:14:04.901Z,47.55
2022-09-15T13:16:46.663Z,47.28
2022-09-15T13:19:33.873Z,46.50
2022-09-15T13:22:12.700Z,45.50
2022-09-15T13:24:46.836Z,44.61
2022-09-15T13:27:21.254Z,43.86
2022-09-15T13:30:03.230Z,42.47
2022-09-15T13:32:50.679Z,41.28
2022-09-15T13:35:48.813Z,40.53
2022-09-15T13:38:26.252Z,40.02
2022-09-15T13:41:17.733Z,39.39
2022-09-15T13:44:07.366Z,39.10
2022-09-15T13:46:53.457Z,38.91
2022-09-15T13:49:32.832Z,38.69
2022-09-15T13:52:08.540Z,38.39
2022-09-15T13:54:35.307Z,38.53
2022-09-15T13:57:02.663Z,38.39
2022-09-15T13:59:33.305Z,38.29
2022-09-15T14:02:00.860Z,37.96
2022-09-15T14:04:31.233Z,37.76
2022-09-15T14:07:01.421Z,37.26
2022-09-15T14:09:33.314Z,36.25
2022-09-15T14:12:08.283Z,35.48
2022-09-15T14:14:45.201Z,34.72
2022-09-15T14:17:27.259Z,33.56
2022-09-15T14:19:56.452Z,33.21
2022-09-15T14:22:27.302Z,32.58
2022-09-15T14:24:54.700Z,32.42
2022-09-15T14:27:25.609Z,32.79
2022-09-15T14:29:58.189Z,33.03
2022-09-15T14:32:28.036Z,33.50
2022-09-15T14:34:59.436Z,33.75
2022-09-15T14:37:34.877Z,34.16
2022-09-15T14:40:16.895Z,34.47
2022-09-15T14:42:43.904Z,34.47
2022-09-15T14:48:03.320Z,33.58
2022-09-15T14:50:33.242Z,32.40
2022-09-15T14:53:24.276Z,31.44
2022-09-15T14:56:08.205Z,30.62
2022-09-15T14:58:54.378Z,29.74
2022-09-15T15:01:33.375Z,29.56
2022-09-15T15:04:10.514Z,28.58
2022-09-15T15:14:07.934Z,25.82
2022-09-15T15:17:32.971Z,25.39
2022-09-15T15:20:39.722Z,24.90
2022-09-15T15:24:15.116Z,24.86
2022-09-15T15:27:21.880Z,24.46
2022-09-15T15:29:48.688Z,24.29
2022-09-15T15:32:17.799Z,23.94
2022-09-15T15:35:04.322Z,23.69
2022-09-15T15:37:33.940Z,23.46
2022-09-15T15:40:07.448Z,23.94
2022-09-15T15:42:34.587Z,23.98
2022-09-15T15:45:13.410Z,24.17
2022-09-15T15:47:40.042Z,24.69
2022-09-15T15:50:14.283Z,24.55
2022-09-15T15:52:42.500Z,25.19
2022-09-15T15:55:23.270Z,25.67
2022-09-15T15:57:52.919Z,26.24
2022-09-15T16:00:30.694Z,26.75
2022-09-15T16:02:57.981Z,27.10
2022-09-15T16:05:29.810Z,27.68
2022-09-15T16:08:00.361Z,28.23
2022-09-15T16:10:30.893Z,28.67
2022-09-15T16:12:57.536Z,29.11
2022-09-15T16:15:24.487Z,29.29
2022-09-15T16:17:51.171Z,29.66
2022-09-15T16:24:51.596Z,30.67
2022-09-15T16:28:18.168Z,31.03
2022-09-15T16:35:27.388Z,32.45
2022-09-15T16:38:54.000Z,33.15
2022-09-15T16:42:20.652Z,33.68
2022-09-15T16:45:47.126Z,34.46
2022-09-15T16:53:06.072Z,35.44
2022-09-15T16:56:35.376Z,35.86
2022-09-15T17:00:01.944Z,36.42
2022-09-15T17:03:28.515Z,37.01
2022-09-15T17:10:39.011Z,38.01
2022-09-15T17:14:05.424Z,38.28
2022-09-15T17:17:42.789Z,38.96
2022-09-15T17:21:09.279Z,39.17
2022-09-15T17:24:35.890Z,39.54
2022-09-15T17:31:57.479Z,40.09
2022-09-15T17:35:23.891Z,40.47
2022-09-15T17:42:41.836Z,41.21
2022-09-15T17:46:14.498Z,41.35
2022-09-15T17:53:32.920Z,42.48
2022-09-15T17:56:59.352Z,42.40
2022-09-15T18:03:43.702Z,43.22
2022-09-15T18:07:10.171Z,43.69
2022-09-15T18:09:37.219Z,43.68
2022-09-15T18:12:04.498Z,44.22
2022-09-15T18:14:31.207Z,44.38
2022-09-15T18:16:58.200Z,44.67
2022-09-15T18:19:24.826Z,44.49
2022-09-15T18:21:53.290Z,44.64
2022-09-15T18:24:20.234Z,45.05
2022-09-15T18:26:46.885Z,45.23
2022-09-15T18:29:13.563Z,45.58
2022-09-15T18:31:40.726Z,45.95
2022-09-15T18:34:07.747Z,46.35
2022-09-15T18:36:34.502Z,46.56
2022-09-15T18:39:02.067Z,47.03
2022-09-15T18:41:28.743Z,47.23
2022-09-15T18:43:55.421Z,47.91
2022-09-15T18:46:22.352Z,47.72
2022-09-15T18:48:49.030Z,48.06
2022-09-15T18:51:23.636Z,48.52
2022-09-15T18:53:54.214Z,48.73
2022-09-15T18:56:21.279Z,48.79
2022-09-15T18:58:48.034Z,48.90
2022-09-15T19:01:18.091Z,49.06
2022-09-15T19:03:45.215Z,49.49
2022-09-15T19:06:12.330Z,49.70
2022-09-15T19:08:40.528Z,49.58
2022-09-15T19:11:07.404Z,49.93
2022-09-15T19:13:35.695Z,50.10
2022-09-15T19:16:04.850Z,50.27
2022-09-15T19:18:32.116Z,50.16
2022-09-15T19:21:10.837Z,50.72
2022-09-15T19:23:38.018Z,50.57
2022-09-15T19:26:07.170Z,51.20
2022-09-15T19:28:34.130Z,51.18
2022-09-15T19:31:00.945Z,51.16
2022-09-15T19:33:27.630Z,51.64
2022-09-15T19:36:10.872Z,51.63
2022-09-15T19:38:41.733Z,52.02
2022-09-15T19:41:13.700Z,52.06
2022-09-15T19:43:41.271Z,52.09
2022-09-15T19:46:16.445Z,52.29
2022-09-15T19:48:46.512Z,52.53
2022-09-15T19:51:17.770Z,52.99
2022-09-15T19:53:44.920Z,52.76
2022-09-15T19:56:17.514Z,52.92
2022-09-15T19:58:44.591Z,53.20
2022-09-15T20:01:11.743Z,53.25
2022-09-15T20:03:39.281Z,53.61
2022-09-15T20:06:08.657Z,53.79
2022-09-15T20:08:36.492Z,53.99
2022-09-15T20:11:09.828Z,53.79
2022-09-15T20:13:41.499Z,53.96
2022-09-15T20:16:08.630Z,54.48
2022-09-15T20:18:41.332Z,54.46
2022-09-15T20:21:08.501Z,54.43
2022-09-15T20:23:36.292Z,54.43
2022-09-15T20:26:06.486Z,54.81
2022-09-15T20:28:34.261Z,55.03
2022-09-15T20:31:06.248Z,54.84
2022-09-15T20:33:34.469Z,55.07
2022-09-15T20:36:04.213Z,55.18
2022-09-15T20:38:33.421Z,55.29
2022-09-15T20:41:01.221Z,55.36
2022-09-15T20:43:28.439Z,55.88
2022-09-15T20:46:06.881Z,55.64
2022-09-15T20:48:36.745Z,55.92
2022-09-15T20:51:10.075Z,56.19
2022-09-15T20:53:37.604Z,56.65
2022-09-15T20:56:04.520Z,56.51
2022-09-15T20:58:36.459Z,56.50
2022-09-15T21:01:15.534Z,56.70
2022-09-15T21:03:44.297Z,56.98
2022-09-15T21:06:17.020Z,57.46
2022-09-15T21:08:44.233Z,57.54
2022-09-15T21:11:11.625Z,57.39
2022-09-15T21:13:40.492Z,57.38
2022-09-15T21:16:10.427Z,57.83
2022-09-15T21:18:39.530Z,58.04
2022-09-15T21:21:12.349Z,58.04
2022-09-15T21:23:41.709Z,58.00
2022-09-15T21:26:13.254Z,58.17
2022-09-15T21:28:41.300Z,58.47
2022-09-15T21:31:11.101Z,58.78
2022-09-15T21:33:39.134Z,58.43
2022-09-15T21:36:10.603Z,58.52
2022-09-15T21:38:39.093Z,58.71
2022-09-15T21:41:07.602Z,58.99
2022-09-15T21:43:36.990Z,59.03
2022-09-15T21:46:05.670Z,58.94
2022-09-15T21:48:34.053Z,59.02
2022-09-15T21:51:02.587Z,59.39
2022-09-15T21:53:29.887Z,59.31
2022-09-15T21:56:00.943Z,59.74
2022-09-15T21:58:32.197Z,59.69
2022-09-15T22:00:58.894Z,59.72
2022-09-15T22:03:25.737Z,60.06
2022-09-15T22:05:54.567Z,60.14
2022-09-15T22:08:21.275Z,60.35
2022-09-15T22:10:48.101Z,60.44
2022-09-15T22:13:14.842Z,60.31
2022-09-15T22:15:41.569Z,60.75
2022-09-15T22:18:08.271Z,60.78
2022-09-15T22:20:35.135Z,61.02
2022-09-15T22:23:01.954Z,61.15
2022-09-15T22:25:29.219Z,61.29
2022-09-15T22:27:55.985Z,60.85
2022-09-15T22:30:22.677Z,61.05
2022-09-15T22:32:49.418Z,61.62
2022-09-15T22:35:17.555Z,61.37
2022-09-15T22:37:44.308Z,61.76
2022-09-15T22:40:11.363Z,61.84
2022-09-15T22:42:38.329Z,61.82
2022-09-15T22:45:05.552Z,61.93
2022-09-15T22:47:34.202Z,61.90
2022-09-15T22:50:00.974Z,61.76
2022-09-15T22:52:27.651Z,62.17
2022-09-15T22:54:54.696Z,61.86
2022-09-15T22:57:21.527Z,62.08
2022-09-15T22:59:48.268Z,62.38
2022-09-15T23:02:15.051Z,62.44
2022-09-15T23:04:41.867Z,62.32
2022-09-15T23:07:09.542Z,62.61
2022-09-15T23:09:36.361Z,62.39
2022-09-15T23:12:03.444Z,62.63
2022-09-15T23:14:30.113Z,62.69
2022-09-15T23:16:56.779Z,62.84
2022-09-15T23:19:23.570Z,62.67
2022-09-15T23:21:50.282Z,62.52
2022-09-15T23:24:17.315Z,62.58
2022-09-15T23:26:46.435Z,62.86
2022-09-15T23:29:13.316Z,62.73
2022-09-15T23:31:40.111Z,62.62
2022-09-15T23:34:07.061Z,62.91
2022-09-15T23:36:33.891Z,62.97
2022-09-15T23:39:00.696Z,62.86
2022-09-15T23:41:27.622Z,63.16
2022-09-15T23:43:55.643Z,63.06
2022-09-15T23:46:22.578Z,63.14
2022-09-15T23:48:49.487Z,63.24
2022-09-15T23:51:16.669Z,63.12
2022-09-15T23:53:43.442Z,62.93
2022-09-15T23:56:10.211Z,63.25
2022-09-15T23:58:37.562Z,63.19
